createdAt,value
2022-08-20T00:00:27.939Z,12.38
2022-08-20T00:02:58.462Z,12.70
2022-08-20T00:05:28.629Z,14.13
2022-08-20T00:07:55.405Z,15.30
2022-08-20T00:10:22.988Z,16.10
2022-08-20T00:12:50.440Z,16.15
2022-08-20T00:15:21.551Z,17.27
2022-08-20T00:17:52.811Z,18.33
2022-08-20T00:20:21.557Z,17.67
2022-08-20T00:22:48.202Z,18.50
2022-08-20T00:25:16.258Z,18.98
2022-08-20T00:27:42.822Z,19.63
2022-08-20T00:30:11.762Z,19.38
2022-08-20T00:33:02.672Z,19.50
2022-08-20T00:35:31.190Z,20.13
2022-08-20T00:38:00.688Z,20.48
2022-08-20T00:40:31.888Z,19.35
2022-08-20T00:43:00.562Z,20.92
2022-08-20T00:45:29.875Z,20.13
2022-08-20T00:47:56.919Z,20.60
2022-08-20T00:50:36.558Z,22.10
2022-08-20T00:53:04.445Z,21.33
2022-08-20T00:55:31.864Z,21.40
2022-08-20T00:58:02.982Z,20.63
2022-08-20T01:00:37.522Z,22.15
2022-08-20T01:03:09.643Z,21.40
2022-08-20T01:05:37.926Z,21.42
2022-08-20T01:08:04.760Z,21.70
2022-08-20T01:10:35.780Z,22.00
2022-08-20T01:13:09.926Z,19.90
2022-08-20T01:15:43.391Z,22.15
2022-08-20T01:18:13.879Z,22.83
2022-08-20T01:20:44.549Z,21.15
2022-08-20T01:23:32.330Z,21.92
2022-08-20T01:26:18.069Z,21.58
2022-08-20T01:28:51.166Z,22.13
2022-08-20T01:31:25.547Z,21.27
2022-08-20T01:33:53.778Z,22.17
2022-08-20T01:36:31.599Z,22.08
2022-08-20T01:38:59.906Z,20.70
2022-08-20T01:41:53.402Z,21.98
2022-08-20T01:44:21.082Z,22.65
2022-08-20T01:46:49.821Z,23.27
2022-08-20T01:49:22.937Z,21.42
2022-08-20T01:51:51.728Z,21.08
2022-08-20T01:54:18.410Z,21.75
2022-08-20T01:56:58.215Z,22.75
2022-08-20T01:59:24.946Z,22.40
2022-08-20T02:01:52.419Z,21.48
2022-08-20T02:04:19.198Z,22.65
2022-08-20T02:06:56.325Z,21.35
2022-08-20T02:09:26.115Z,21.10
2022-08-20T02:11:53.296Z,22.08
2022-08-20T02:14:20.432Z,21.80
2022-08-20T02:16:52.385Z,23.13
2022-08-20T02:19:30.214Z,22.80
2022-08-20T02:21:59.277Z,22.65
2022-08-20T02:24:26.067Z,23.98
2022-08-20T02:26:52.794Z,24.10
2022-08-20T02:29:19.329Z,24.85
2022-08-20T02:32:25.030Z,23.45
2022-08-20T02:34:36.024Z,23.73
2022-08-20T02:37:04.668Z,24.77
2022-08-20T02:39:31.577Z,26.17
2022-08-20T02:41:58.164Z,25.67
2022-08-20T02:44:24.814Z,26.70
2022-08-20T02:46:51.382Z,25.88
2022-08-20T02:49:18.760Z,26.70
2022-08-20T02:51:45.965Z,25.98
2022-08-20T02:54:13.516Z,26.38
2022-08-20T02:56:40.454Z,25.65
2022-08-20T02:59:07.918Z,26.65
2022-08-20T03:01:34.631Z,24.75
2022-08-20T03:04:01.274Z,27.25
2022-08-20T03:06:28.081Z,26.83
2022-08-20T03:08:54.746Z,27.15
2022-08-20T03:11:21.653Z,27.92
2022-08-20T03:13:48.270Z,27.42
2022-08-20T03:16:15.343Z,25.88
2022-08-20T03:18:44.890Z,27.50
2022-08-20T03:21:14.726Z,27.33
2022-08-20T03:23:42.148Z,25.50
2022-08-20T03:26:10.768Z,26.55
2022-08-20T03:28:37.755Z,27.00
2022-08-20T03:31:05.141Z,27.27
2022-08-20T03:33:32.063Z,26.98
2022-08-20T03:35:58.715Z,27.77
2022-08-20T03:38:32.783Z,29.40
2022-08-20T03:41:01.003Z,29.30
2022-08-20T03:43:27.569Z,28.77
2022-08-20T03:45:54.334Z,30.92
2022-08-20T03:48:21.426Z,30.70
2022-08-20T03:50:49.314Z,31.13
2022-08-20T03:53:16.275Z,30.67
2022-08-20T03:55:54.117Z,31.17
2022-08-20T03:58:29.962Z,29.23
2022-08-20T04:01:02.618Z,30.60
2022-08-20T04:03:29.300Z,30.17
2022-08-20T04:05:55.918Z,29.45
2022-08-20T04:08:26.258Z,30.63
2022-08-20T04:10:54.214Z,30.48
2022-08-20T04:13:22.757Z,31.83
2022-08-20T04:15:50.692Z,30.65
2022-08-20T04:18:20.456Z,28.17
2022-08-20T04:20:47.733Z,22.48
2022-08-20T04:23:14.875Z,18.20
2022-08-20T04:25:43.357Z,16.30
2022-08-20T04:28:28.670Z,17.42
2022-08-20T04:30:57.728Z,14.68
2022-08-20T04:33:33.935Z,13.77
2022-08-20T04:36:02.923Z,12.02
2022-08-20T04:38:47.816Z,13.43
2022-08-20T04:41:23.390Z,12.27
2022-08-20T04:43:52.930Z,13.23
2022-08-20T04:46:19.671Z,12.57
2022-08-20T04:48:48.601Z,13.93
2022-08-20T04:51:16.826Z,15.00
2022-08-20T04:53:44.509Z,13.93
2022-08-20T04:56:23.364Z,13.75
2022-08-20T04:58:51.282Z,14.65
2022-08-20T05:01:18.076Z,15.20
2022-08-20T05:03:47.490Z,15.23
2022-08-20T05:06:18.616Z,14.38
2022-08-20T05:08:45.446Z,14.65
2022-08-20T05:11:33.635Z,15.73
2022-08-20T05:14:00.920Z,15.57
2022-08-20T05:16:27.496Z,15.55
2022-08-20T05:18:54.061Z,15.70
2022-08-20T05:21:21.214Z,16.27
2022-08-20T05:23:49.026Z,14.77
2022-08-20T05:26:15.952Z,14.63
2022-08-20T05:28:54.373Z,14.63
2022-08-20T05:31:31.005Z,14.38
2022-08-20T05:33:59.918Z,15.13
2022-08-20T05:36:26.939Z,14.98
2022-08-20T05:38:53.777Z,15.45
2022-08-20T05:41:27.486Z,15.82
2022-08-20T05:43:57.026Z,16.00
2022-08-20T05:46:23.600Z,20.52
2022-08-20T05:48:50.114Z,20.60
2022-08-20T05:51:16.684Z,29.55
2022-08-20T05:53:43.838Z,31.40
2022-08-20T05:56:11.349Z,35.65
2022-08-20T05:58:37.970Z,34.30
2022-08-20T06:01:05.352Z,37.85
2022-08-20T06:03:50.733Z,39.03
2022-08-20T06:06:20.691Z,40.38
2022-08-20T06:09:04.368Z,40.75
2022-08-20T06:11:35.144Z,47.33
2022-08-20T06:14:03.796Z,51.30
2022-08-20T06:16:30.479Z,52.42
2022-08-20T06:18:58.713Z,56.38
2022-08-20T06:21:25.874Z,58.55
2022-08-20T06:23:57.662Z,58.55
2022-08-20T06:26:30.728Z,59.42
2022-08-20T06:28:59.085Z,59.67
2022-08-20T06:31:25.999Z,59.90
2022-08-20T06:33:52.640Z,61.15
2022-08-20T06:36:19.632Z,57.67
2022-08-20T06:38:46.554Z,59.22
2022-08-20T06:41:13.943Z,59.58
2022-08-20T06:43:40.555Z,58.40
2022-08-20T06:46:07.231Z,57.83
2022-08-20T06:48:34.251Z,56.38
2022-08-20T06:51:01.345Z,55.22
2022-08-20T06:53:28.861Z,54.38
2022-08-20T06:55:58.730Z,52.95
2022-08-20T06:58:30.509Z,52.45
2022-08-20T07:01:09.904Z,52.70
2022-08-20T07:03:38.700Z,51.95
2022-08-20T07:06:05.588Z,50.20
2022-08-20T07:08:32.219Z,49.72
2022-08-20T07:10:59.570Z,50.08
2022-08-20T07:13:26.305Z,44.22
2022-08-20T07:15:54.338Z,44.15
2022-08-20T07:18:28.435Z,43.70
2022-08-20T07:20:57.269Z,43.25
2022-08-20T07:23:27.522Z,40.40
2022-08-20T07:25:55.598Z,40.78
2022-08-20T07:28:23.790Z,39.10
2022-08-20T07:31:13.503Z,39.15
2022-08-20T07:33:41.594Z,39.10
2022-08-20T07:36:08.987Z,39.88
2022-08-20T07:38:35.907Z,39.00
2022-08-20T07:41:14.699Z,40.55
2022-08-20T07:43:43.166Z,37.75
2022-08-20T07:46:10.168Z,40.97
2022-08-20T07:48:46.094Z,38.00
2022-08-20T07:51:17.008Z,38.30
2022-08-20T07:53:45.277Z,36.20
2022-08-20T07:56:14.485Z,36.25
2022-08-20T07:58:43.632Z,36.67
2022-08-20T08:01:11.441Z,36.47
2022-08-20T08:03:49.322Z,37.08
2022-08-20T08:06:29.347Z,34.63
2022-08-20T08:09:10.066Z,36.47
2022-08-20T08:11:38.948Z,32.28
2022-08-20T08:14:07.093Z,34.83
2022-08-20T08:16:35.288Z,33.00
2022-08-20T08:19:04.760Z,32.60
2022-08-20T08:21:31.478Z,31.08
2022-08-20T08:23:58.231Z,30.95
2022-08-20T08:26:26.180Z,29.95
2022-08-20T08:28:52.735Z,31.50
2022-08-20T08:31:19.336Z,31.17
2022-08-20T08:33:46.336Z,31.98
2022-08-20T08:36:15.267Z,29.02
2022-08-20T08:38:44.361Z,32.45
2022-08-20T08:41:22.888Z,30.60
2022-08-20T08:43:53.155Z,29.60
2022-08-20T08:46:24.448Z,28.47
2022-08-20T08:48:56.086Z,27.85
2022-08-20T08:51:41.200Z,26.17
2022-08-20T08:54:08.669Z,25.35
2022-08-20T08:56:36.089Z,25.98
2022-08-20T08:59:08.428Z,27.45
2022-08-20T09:01:55.198Z,30.40
2022-08-20T09:04:26.833Z,28.48
2022-08-20T09:06:54.297Z,30.70
2022-08-20T09:09:29.839Z,28.30
2022-08-20T09:12:03.673Z,28.58
2022-08-20T09:14:30.251Z,26.23
2022-08-20T09:16:56.819Z,26.33
2022-08-20T09:19:23.339Z,25.50
2022-08-20T09:21:49.946Z,24.45
2022-08-20T09:24:16.565Z,23.98
2022-08-20T09:26:43.794Z,23.23
2022-08-20T09:29:10.430Z,24.17
2022-08-20T09:31:37.815Z,25.05
2022-08-20T09:34:05.760Z,23.70
2022-08-20T09:36:33.143Z,25.75
2022-08-20T09:39:00.703Z,25.95
2022-08-20T09:41:29.503Z,27.00
2022-08-20T09:43:56.042Z,26.52
2022-08-20T09:46:27.150Z,26.30
2022-08-20T09:48:54.635Z,27.15
2022-08-20T09:51:21.412Z,28.45
2022-08-20T09:53:48.901Z,27.17
2022-08-20T09:56:15.555Z,28.58
2022-08-20T09:58:53.509Z,26.67
2022-08-20T10:01:21.644Z,28.73
2022-08-20T10:03:49.355Z,30.17
2022-08-20T10:06:17.721Z,30.08
2022-08-20T10:08:44.486Z,30.60
2022-08-20T10:11:11.723Z,29.77
2022-08-20T10:13:38.264Z,31.52
2022-08-20T10:16:05.150Z,32.70
2022-08-20T10:18:31.685Z,31.27
2022-08-20T10:20:58.248Z,31.95
2022-08-20T10:23:24.784Z,32.10
2022-08-20T10:25:51.357Z,30.90
2022-08-20T10:28:17.871Z,31.08
2022-08-20T10:30:45.083Z,32.33
2022-08-20T10:33:11.639Z,29.77
2022-08-20T10:35:38.188Z,31.70
2022-08-20T10:38:04.721Z,31.15
2022-08-20T10:40:31.354Z,31.38
2022-08-20T10:42:57.870Z,31.17
2022-08-20T10:45:25.702Z,31.35
2022-08-20T10:47:52.418Z,30.45
2022-08-20T10:50:19.926Z,29.45
2022-08-20T10:52:47.076Z,28.08
2022-08-20T10:55:14.905Z,29.10
2022-08-20T10:57:43.407Z,25.50
2022-08-20T11:00:15.028Z,26.95
2022-08-20T11:02:41.625Z,25.92
2022-08-20T11:05:08.874Z,25.30
2022-08-20T11:07:49.881Z,24.88
2022-08-20T11:10:25.435Z,23.70
2022-08-20T11:12:52.338Z,22.52
2022-08-20T11:15:19.016Z,20.45
2022-08-20T11:17:45.875Z,19.70
2022-08-20T11:20:15.221Z,20.30
2022-08-20T11:22:41.858Z,20.58
2022-08-20T11:25:09.404Z,22.50
2022-08-20T11:27:42.443Z,21.52
2022-08-20T11:30:11.583Z,21.05
2022-08-20T11:32:38.367Z,20.08
2022-08-20T11:35:19.199Z,21.92
2022-08-20T11:37:54.370Z,20.05
2022-08-20T11:40:21.667Z,20.02
2022-08-20T11:43:12.620Z,19.33
2022-08-20T11:45:37.563Z,20.55
2022-08-20T11:48:04.684Z,18.02
2022-08-20T11:50:31.192Z,18.50
2022-08-20T11:52:57.839Z,16.92
2022-08-20T11:55:30.237Z,17.50
2022-08-20T11:57:59.865Z,17.02
2022-08-20T12:00:32.984Z,17.25
2022-08-20T12:03:05.510Z,15.30
2022-08-20T12:05:35.346Z,15.00
2022-08-20T12:08:02.129Z,14.63
2022-08-20T12:10:29.799Z,14.05
2022-08-20T12:12:57.010Z,15.95
2022-08-20T12:15:24.091Z,15.60
2022-08-20T12:17:50.681Z,13.65
2022-08-20T12:20:17.281Z,13.57
2022-08-20T12:22:44.582Z,14.40
2022-08-20T12:25:12.500Z,13.10
2022-08-20T12:27:39.962Z,13.82
2022-08-20T12:30:12.712Z,14.07
2022-08-20T12:32:40.027Z,13.35
2022-08-20T12:35:07.856Z,13.23
2022-08-20T12:37:34.621Z,14.75
2022-08-20T12:40:03.200Z,11.65
2022-08-20T12:42:30.545Z,12.13
2022-08-20T12:44:57.875Z,11.68
2022-08-20T12:47:29.939Z,10.90
2022-08-20T12:50:03.128Z,10.85
2022-08-20T12:52:31.938Z,10.45
2022-08-20T12:54:59.379Z,10.63
2022-08-20T12:57:28.952Z,9.60
2022-08-20T13:00:11.704Z,10.02
2022-08-20T13:02:40.934Z,10.13
2022-08-20T13:05:12.286Z,10.07
2022-08-20T13:07:39.781Z,9.40
2022-08-20T13:10:08.278Z,9.00
2022-08-20T13:12:35.285Z,8.00
2022-08-20T13:15:02.076Z,9.07
2022-08-20T13:17:38.472Z,8.13
2022-08-20T13:20:08.970Z,8.00
2022-08-20T13:22:35.656Z,8.63
2022-08-20T13:25:02.425Z,8.40
2022-08-20T13:27:28.997Z,7.63
2022-08-20T13:29:58.801Z,6.78
2022-08-20T13:32:26.195Z,8.43
2022-08-20T13:34:52.936Z,7.68
2022-08-20T13:37:25.779Z,7.90
2022-08-20T13:39:56.638Z,8.32
2022-08-20T13:42:23.526Z,7.60
2022-08-20T13:44:50.094Z,7.22
2022-08-20T13:47:26.648Z,7.45
2022-08-20T13:50:09.947Z,7.45
2022-08-20T13:52:37.295Z,6.75
2022-08-20T13:55:07.078Z,7.28
2022-08-20T13:57:34.475Z,7.65
2022-08-20T14:00:01.057Z,6.55
2022-08-20T14:02:27.896Z,6.80
2022-08-20T14:04:54.836Z,6.93
2022-08-20T14:07:24.018Z,7.38
2022-08-20T14:09:54.508Z,7.10
2022-08-20T14:12:23.087Z,7.43
2022-08-20T14:14:50.627Z,7.97
2022-08-20T14:17:19.708Z,7.50
2022-08-20T14:19:47.987Z,7.53
2022-08-20T14:22:17.651Z,7.75
2022-08-20T14:24:45.438Z,8.68
2022-08-20T14:27:14.026Z,7.45
2022-08-20T14:29:43.041Z,6.78
2022-08-20T14:32:10.238Z,7.22
2022-08-20T14:34:37.880Z,6.22
2022-08-20T14:37:12.205Z,7.60
2022-08-20T14:39:38.908Z,7.10
2022-08-20T14:42:05.884Z,6.05
2022-08-20T14:44:33.050Z,6.85
2022-08-20T14:47:20.662Z,7.05
2022-08-20T14:49:49.018Z,7.50
2022-08-20T14:52:17.240Z,6.22
2022-08-20T14:54:44.384Z,6.95
2022-08-20T14:57:13.351Z,7.32
2022-08-20T14:59:40.905Z,7.13
2022-08-20T15:02:09.240Z,6.82
2022-08-20T15:04:36.337Z,4.00
2022-08-20T15:07:11.157Z,4.35
2022-08-20T15:09:40.111Z,3.95
2022-08-20T15:12:06.768Z,4.15
2022-08-20T15:14:33.338Z,4.60
2022-08-20T15:17:00.222Z,4.65
2022-08-20T15:19:26.770Z,5.18
2022-08-20T15:21:53.316Z,5.47
2022-08-20T15:24:19.849Z,6.38
2022-08-20T15:26:46.942Z,5.20
2022-08-20T15:29:23.427Z,5.93
2022-08-20T15:31:50.811Z,5.63
2022-08-20T15:34:17.721Z,5.60
2022-08-20T15:36:45.333Z,6.18
2022-08-20T15:39:11.885Z,5.32
2022-08-20T15:41:38.521Z,5.15
2022-08-20T15:44:05.052Z,4.45
2022-08-20T15:46:36.093Z,4.53
2022-08-20T15:49:08.423Z,4.85
2022-08-20T15:51:42.700Z,5.00
2022-08-20T15:54:17.553Z,4.88
2022-08-20T15:57:25.395Z,5.07
2022-08-20T16:00:19.906Z,4.40
2022-08-20T16:03:01.281Z,4.63
2022-08-20T16:05:45.278Z,4.03
2022-08-20T16:08:34.421Z,3.65
2022-08-20T16:11:03.479Z,3.90
2022-08-20T16:14:05.083Z,4.28
2022-08-20T16:16:36.519Z,5.05
2022-08-20T16:19:04.565Z,5.70
2022-08-20T16:21:35.182Z,5.22
2022-08-20T16:24:01.975Z,5.20
2022-08-20T16:27:04.035Z,5.63
2022-08-20T16:30:04.475Z,4.97
2022-08-20T16:32:44.851Z,5.05
2022-08-20T16:35:32.060Z,5.75
2022-08-20T16:38:21.202Z,6.57
2022-08-20T16:40:53.228Z,6.55
2022-08-20T16:43:48.910Z,5.95
2022-08-20T16:46:18.924Z,6.18
2022-08-20T16:48:58.110Z,5.68
2022-08-20T16:51:37.895Z,7.05
2022-08-20T16:54:05.180Z,5.65
2022-08-20T16:56:37.909Z,6.55
2022-08-20T16:59:10.960Z,6.88
2022-08-20T17:01:38.113Z,6.90
2022-08-20T17:04:06.001Z,6.32
2022-08-20T17:06:35.451Z,7.13
2022-08-20T17:09:08.626Z,7.13
2022-08-20T17:11:37.372Z,6.80
2022-08-20T17:14:08.913Z,7.10
2022-08-20T17:16:45.021Z,8.60
2022-08-20T17:19:15.372Z,7.97
2022-08-20T17:21:42.311Z,7.23
2022-08-20T17:24:25.348Z,6.22
2022-08-20T17:27:32.960Z,7.35
2022-08-20T17:30:23.353Z,8.07
2022-08-20T17:33:00.210Z,7.60
2022-08-20T17:35:35.287Z,6.50
2022-08-20T17:38:04.207Z,5.70
2022-08-20T17:40:47.084Z,7.45
2022-08-20T17:43:29.697Z,6.55
2022-08-20T17:45:58.532Z,6.35
2022-08-20T17:48:28.464Z,5.40
2022-08-20T17:50:55.978Z,5.25
2022-08-20T17:53:26.351Z,5.28
2022-08-20T17:55:58.557Z,5.73
2022-08-20T17:58:37.747Z,5.38
2022-08-20T18:01:05.188Z,5.00
2022-08-20T18:03:36.591Z,5.80
2022-08-20T18:06:10.117Z,5.60
2022-08-20T18:08:44.172Z,5.30
2022-08-20T18:11:20.933Z,5.40
2022-08-20T18:14:25.338Z,4.85
2022-08-20T18:17:02.113Z,5.32
2022-08-20T18:19:40.795Z,4.93
2022-08-20T18:22:23.315Z,4.85
2022-08-20T18:25:08.675Z,5.50
2022-08-20T18:27:47.661Z,5.45
2022-08-20T18:30:19.355Z,6.03
2022-08-20T18:32:48.979Z,5.60
2022-08-20T18:35:36.005Z,6.28
2022-08-20T18:38:32.013Z,5.88
2022-08-20T18:41:14.908Z,6.18
2022-08-20T18:43:42.485Z,6.07
2022-08-20T18:46:10.890Z,6.13
2022-08-20T18:48:37.760Z,5.45
2022-08-20T18:51:09.331Z,8.02
2022-08-20T18:53:36.055Z,6.05
2022-08-20T18:56:13.507Z,6.25
2022-08-20T18:58:57.557Z,6.47
2022-08-20T19:01:25.191Z,5.65
2022-08-20T19:03:55.980Z,6.70
2022-08-20T19:06:36.263Z,6.60
2022-08-20T19:09:37.155Z,6.07
2022-08-20T19:12:09.717Z,7.68
2022-08-20T19:15:14.215Z,7.20
2022-08-20T19:18:07.530Z,7.47
2022-08-20T19:20:37.059Z,6.97
2022-08-20T19:23:16.752Z,7.45
2022-08-20T19:26:00.754Z,6.10
2022-08-20T19:28:40.133Z,6.22
2022-08-20T19:31:23.373Z,6.47
2022-08-20T19:34:21.824Z,6.15
2022-08-20T19:36:59.518Z,5.78
2022-08-20T19:39:30.254Z,5.60
2022-08-20T19:42:02.627Z,5.70
2022-08-20T19:44:40.140Z,5.70
2022-08-20T19:47:19.969Z,5.43
2022-08-20T19:49:59.990Z,6.72
2022-08-20T19:52:46.969Z,6.68
2022-08-20T19:55:22.203Z,7.15
2022-08-20T19:57:54.368Z,7.88
2022-08-20T20:00:23.537Z,6.40
2022-08-20T20:02:50.444Z,7.25
2022-08-20T20:05:17.628Z,7.28
2022-08-20T20:07:48.946Z,6.60
2022-08-20T20:10:33.852Z,5.68
2022-08-20T20:13:08.536Z,5.35
2022-08-20T20:15:37.544Z,5.60
2022-08-20T20:18:04.668Z,5.50
2022-08-20T20:20:34.872Z,5.72
2022-08-20T20:23:14.216Z,5.25
2022-08-20T20:25:43.290Z,4.95
2022-08-20T20:28:18.775Z,5.20
2022-08-20T20:30:46.164Z,5.25
2022-08-20T20:33:16.244Z,5.35
2022-08-20T20:35:44.087Z,4.95
2022-08-20T20:38:25.545Z,4.95
2022-08-20T20:43:38.019Z,5.18
2022-08-20T20:46:12.899Z,4.25
2022-08-20T20:48:48.782Z,5.38
2022-08-20T20:51:18.716Z,4.85
2022-08-20T20:53:54.340Z,4.82
2022-08-20T20:56:38.166Z,5.15
2022-08-20T20:59:07.180Z,4.78
2022-08-20T21:01:48.618Z,4.78
2022-08-20T21:04:22.295Z,5.07
2022-08-20T21:06:50.162Z,4.65
2022-08-20T21:09:17.000Z,4.78
2022-08-20T21:11:43.562Z,4.40
2022-08-20T21:14:10.199Z,5.07
2022-08-20T21:16:36.803Z,4.70
2022-08-20T21:19:07.715Z,5.68
2022-08-20T21:21:34.602Z,4.72
2022-08-20T21:24:01.245Z,5.50
2022-08-20T21:26:30.221Z,4.63
2022-08-20T21:28:56.994Z,4.97
2022-08-20T21:31:30.929Z,4.70
2022-08-20T21:33:57.436Z,4.50
2022-08-20T21:36:23.962Z,4.82
2022-08-20T21:38:51.284Z,5.22
2022-08-20T21:41:17.986Z,4.80
2022-08-20T21:43:44.519Z,4.80
2022-08-20T21:46:16.169Z,4.72
2022-08-20T21:48:51.348Z,5.47
2022-08-20T21:51:18.017Z,5.25
2022-08-20T21:53:44.535Z,5.00
2022-08-20T21:56:11.047Z,5.57
2022-08-20T21:58:37.795Z,5.13
2022-08-20T22:01:05.306Z,5.50
2022-08-20T22:03:34.541Z,5.68
2022-08-20T22:06:07.029Z,4.95
2022-08-20T22:08:33.647Z,5.30
2022-08-20T22:11:00.915Z,4.93
2022-08-20T22:13:31.467Z,4.95
2022-08-20T22:15:59.485Z,4.78
2022-08-20T22:18:26.244Z,4.70
2022-08-20T22:20:53.435Z,4.88
2022-08-20T22:23:20.133Z,5.18
2022-08-20T22:25:46.705Z,5.50
2022-08-20T22:28:13.223Z,5.20
2022-08-20T22:30:42.396Z,5.85
2022-08-20T22:33:13.063Z,5.40
2022-08-20T22:35:48.468Z,6.00
2022-08-20T22:38:15.696Z,5.90
2022-08-20T22:40:42.655Z,5.53
2022-08-20T22:43:09.467Z,5.97
2022-08-20T22:45:36.420Z,5.75
2022-08-20T22:48:03.294Z,5.63
2022-08-20T22:50:30.236Z,6.13
2022-08-20T22:52:57.212Z,5.60
2022-08-20T22:55:23.889Z,5.88
2022-08-20T22:57:50.497Z,5.70
2022-08-20T23:00:18.384Z,6.35
2022-08-20T23:02:50.313Z,5.93
2022-08-20T23:05:18.856Z,5.45
2022-08-20T23:07:45.464Z,5.10
2022-08-20T23:10:11.988Z,4.97
2022-08-20T23:12:38.682Z,5.90
2022-08-20T23:15:06.545Z,5.55
2022-08-20T23:17:33.918Z,5.80
2022-08-20T23:20:01.202Z,6.03
2022-08-20T23:22:27.725Z,5.95
2022-08-20T23:24:57.360Z,6.07
2022-08-20T23:27:27.514Z,6.13
2022-08-20T23:29:54.211Z,6.05
2022-08-20T23:32:20.773Z,6.20
2022-08-20T23:34:47.288Z,6.03
2022-08-20T23:37:18.754Z,5.80
2022-08-20T23:39:46.335Z,5.45
2022-08-20T23:42:14.081Z,5.88
2022-08-20T23:44:40.647Z,5.60
2022-08-20T23:47:07.329Z,5.55
2022-08-20T23:49:34.417Z,6.07
2022-08-20T23:52:01.200Z,6.43
2022-08-20T23:54:29.311Z,5.80
2022-08-20T23:56:56.970Z,6.18
2022-08-20T23:59:25.431Z,6.10
